sensor_id;sensor_type;location;lat;lon;timestamp;P1;durP1;ratioP1;P2;durP2;ratioP2
63016;SDS011;50274;45.640;11.756;2023-06-19T00:00:46;9.68;;;7.05;;
63016;SDS011;50274;45.640;11.756;2023-06-19T00:03:12;9.97;;;7.40;;
63016;SDS011;50274;45.640;11.756;2023-06-19T00:05:38;9.93;;;7.35;;
63016;SDS011;50274;45.640;11.756;2023-06-19T00:08:04;9.98;;;7.30;;
63016;SDS011;50274;45.640;11.756;2023-06-19T00:10:31;11.07;;;7.40;;
63016;SDS011;50274;45.640;11.756;2023-06-19T00:12:57;10.77;;;7.50;;
63016;SDS011;50274;45.640;11.756;2023-06-19T00:15:23;10.05;;;6.85;;
63016;SDS011;50274;45.640;11.756;2023-06-19T00:17:49;9.63;;;6.83;;
63016;SDS011;50274;45.640;11.756;2023-06-19T00:20:14;10.77;;;6.77;;
63016;SDS011;50274;45.640;11.756;2023-06-19T00:22:40;9.40;;;6.25;;
63016;SDS011;50274;45.640;11.756;2023-06-19T00:25:07;9.90;;;5.90;;
63016;SDS011;50274;45.640;11.756;2023-06-19T00:27:33;9.20;;;6.13;;
63016;SDS011;50274;45.640;11.756;2023-06-19T00:29:59;8.65;;;5.93;;
63016;SDS011;50274;45.640;11.756;2023-06-19T00:32:30;8.52;;;5.65;;
63016;SDS011;50274;45.640;11.756;2023-06-19T00:34:56;8.97;;;5.47;;
63016;SDS011;50274;45.640;11.756;2023-06-19T00:37:22;10.10;;;5.95;;
63016;SDS011;50274;45.640;11.756;2023-06-19T00:39:48;8.05;;;5.57;;
63016;SDS011;50274;45.640;11.756;2023-06-19T00:42:13;9.93;;;6.10;;
63016;SDS011;50274;45.640;11.756;2023-06-19T00:44:39;7.95;;;5.50;;
63016;SDS011;50274;45.640;11.756;2023-06-19T00:47:05;9.77;;;6.03;;
63016;SDS011;50274;45.640;11.756;2023-06-19T00:49:31;9.05;;;6.45;;
63016;SDS011;50274;45.640;11.756;2023-06-19T00:51:57;8.80;;;6.07;;
63016;SDS011;50274;45.640;11.756;2023-06-19T00:54:23;9.85;;;6.30;;
63016;SDS011;50274;45.640;11.756;2023-06-19T00:56:49;11.60;;;7.13;;
63016;SDS011;50274;45.640;11.756;2023-06-19T00:59:16;10.40;;;6.93;;
63016;SDS011;50274;45.640;11.756;2023-06-19T01:01:45;8.88;;;6.93;;
63016;SDS011;50274;45.640;11.756;2023-06-19T01:04:12;10.07;;;7.28;;
63016;SDS011;50274;45.640;11.756;2023-06-19T01:06:43;9.50;;;5.95;;
63016;SDS011;50274;45.640;11.756;2023-06-19T01:09:38;8.95;;;6.30;;
63016;SDS011;50274;45.640;11.756;2023-06-19T01:12:16;7.90;;;5.90;;
63016;SDS011;50274;45.640;11.756;2023-06-19T01:14:49;9.90;;;6.00;;
63016;SDS011;50274;45.640;11.756;2023-06-19T01:17:20;9.43;;;5.78;;
63016;SDS011;50274;45.640;11.756;2023-06-19T01:19:47;8.95;;;6.13;;
63016;SDS011;50274;45.640;11.756;2023-06-19T01:22:23;8.90;;;6.15;;
63016;SDS011;50274;45.640;11.756;2023-06-19T01:24:55;9.77;;;5.77;;
63016;SDS011;50274;45.640;11.756;2023-06-19T01:27:22;7.45;;;5.50;;
63016;SDS011;50274;45.640;11.756;2023-06-19T01:29:54;8.68;;;6.05;;
63016;SDS011;50274;45.640;11.756;2023-06-19T01:35:20;8.20;;;5.82;;
63016;SDS011;50274;45.640;11.756;2023-06-19T01:37:49;8.10;;;5.70;;
63016;SDS011;50274;45.640;11.756;2023-06-19T01:40:17;9.95;;;6.40;;
63016;SDS011;50274;45.640;11.756;2023-06-19T01:42:46;8.77;;;6.00;;
63016;SDS011;50274;45.640;11.756;2023-06-19T01:45:13;9.63;;;5.68;;
63016;SDS011;50274;45.640;11.756;2023-06-19T01:47:39;8.10;;;6.13;;
63016;SDS011;50274;45.640;11.756;2023-06-19T01:50:05;8.83;;;5.97;;
63016;SDS011;50274;45.640;11.756;2023-06-19T01:52:31;9.65;;;6.30;;
63016;SDS011;50274;45.640;11.756;2023-06-19T01:54:57;8.37;;;6.07;;
63016;SDS011;50274;45.640;11.756;2023-06-19T01:57:23;8.77;;;6.67;;
63016;SDS011;50274;45.640;11.756;2023-06-19T01:59:49;11.50;;;6.20;;
63016;SDS011;50274;45.640;11.756;2023-06-19T02:02:14;9.40;;;6.67;;
63016;SDS011;50274;45.640;11.756;2023-06-19T02:04:40;9.90;;;6.97;;
63016;SDS011;50274;45.640;11.756;2023-06-19T02:07:06;9.43;;;6.60;;
63016;SDS011;50274;45.640;11.756;2023-06-19T02:09:32;10.40;;;6.18;;
63016;SDS011;50274;45.640;11.756;2023-06-19T02:11:57;9.52;;;6.80;;
63016;SDS011;50274;45.640;11.756;2023-06-19T02:14:23;8.30;;;6.00;;
63016;SDS011;50274;45.640;11.756;2023-06-19T02:16:49;9.95;;;6.25;;
63016;SDS011;50274;45.640;11.756;2023-06-19T02:19:15;9.40;;;6.07;;
63016;SDS011;50274;45.640;11.756;2023-06-19T02:21:40;9.15;;;6.35;;
63016;SDS011;50274;45.640;11.756;2023-06-19T02:24:06;7.72;;;5.85;;
63016;SDS011;50274;45.640;11.756;2023-06-19T02:26:32;9.43;;;6.20;;
63016;SDS011;50274;45.640;11.756;2023-06-19T02:28:58;11.18;;;6.00;;
63016;SDS011;50274;45.640;11.756;2023-06-19T02:31:24;9.05;;;6.50;;
63016;SDS011;50274;45.640;11.756;2023-06-19T02:33:50;8.83;;;6.43;;
63016;SDS011;50274;45.640;11.756;2023-06-19T02:36:16;9.20;;;6.50;;
63016;SDS011;50274;45.640;11.756;2023-06-19T02:38:45;8.68;;;5.97;;
63016;SDS011;50274;45.640;11.756;2023-06-19T02:41:12;9.13;;;6.85;;
63016;SDS011;50274;45.640;11.756;2023-06-19T02:43:39;9.13;;;6.07;;
63016;SDS011;50274;45.640;11.756;2023-06-19T02:46:11;8.25;;;6.20;;
63016;SDS011;50274;45.640;11.756;2023-06-19T02:48:37;8.73;;;5.97;;
63016;SDS011;50274;45.640;11.756;2023-06-19T02:51:06;9.33;;;6.23;;
63016;SDS011;50274;45.640;11.756;2023-06-19T02:53:36;9.10;;;6.07;;
63016;SDS011;50274;45.640;11.756;2023-06-19T02:56:09;8.77;;;6.05;;
63016;SDS011;50274;45.640;11.756;2023-06-19T02:58:38;9.02;;;6.25;;
63016;SDS011;50274;45.640;11.756;2023-06-19T03:01:05;9.80;;;6.27;;
63016;SDS011;50274;45.640;11.756;2023-06-19T03:03:34;12.40;;;6.30;;
63016;SDS011;50274;45.640;11.756;2023-06-19T03:06:08;9.40;;;6.68;;
63016;SDS011;50274;45.640;11.756;2023-06-19T03:08:35;9.32;;;6.10;;
63016;SDS011;50274;45.640;11.756;2023-06-19T03:11:01;9.00;;;6.15;;
63016;SDS011;50274;45.640;11.756;2023-06-19T03:13:32;9.27;;;6.53;;
63016;SDS011;50274;45.640;11.756;2023-06-19T03:16:09;8.47;;;6.40;;
63016;SDS011;50274;45.640;11.756;2023-06-19T03:18:35;9.43;;;6.22;;
63016;SDS011;50274;45.640;11.756;2023-06-19T03:21:01;9.45;;;6.13;;
63016;SDS011;50274;45.640;11.756;2023-06-19T03:23:27;9.20;;;6.37;;
63016;SDS011;50274;45.640;11.756;2023-06-19T03:25:52;8.95;;;6.03;;
63016;SDS011;50274;45.640;11.756;2023-06-19T03:28:18;10.47;;;6.40;;
63016;SDS011;50274;45.640;11.756;2023-06-19T03:30:44;9.07;;;6.37;;
63016;SDS011;50274;45.640;11.756;2023-06-19T03:33:10;10.60;;;7.05;;
63016;SDS011;50274;45.640;11.756;2023-06-19T03:35:38;9.47;;;6.33;;
63016;SDS011;50274;45.640;11.756;2023-06-19T03:38:04;11.43;;;6.85;;
63016;SDS011;50274;45.640;11.756;2023-06-19T03:40:30;9.05;;;6.32;;
63016;SDS011;50274;45.640;11.756;2023-06-19T03:42:56;8.45;;;5.72;;
63016;SDS011;50274;45.640;11.756;2023-06-19T03:45:22;9.83;;;6.43;;
63016;SDS011;50274;45.640;11.756;2023-06-19T03:47:48;9.40;;;6.45;;
63016;SDS011;50274;45.640;11.756;2023-06-19T03:50:13;9.53;;;6.33;;
63016;SDS011;50274;45.640;11.756;2023-06-19T03:52:39;10.68;;;6.90;;
63016;SDS011;50274;45.640;11.756;2023-06-19T03:55:05;10.50;;;6.90;;
63016;SDS011;50274;45.640;11.756;2023-06-19T03:57:31;10.17;;;6.97;;
63016;SDS011;50274;45.640;11.756;2023-06-19T03:59:57;10.05;;;6.60;;
63016;SDS011;50274;45.640;11.756;2023-06-19T04:02:23;10.13;;;7.07;;
63016;SDS011;50274;45.640;11.756;2023-06-19T04:04:51;10.37;;;7.00;;
63016;SDS011;50274;45.640;11.756;2023-06-19T04:07:17;11.15;;;7.05;;
63016;SDS011;50274;45.640;11.756;2023-06-19T04:09:43;10.07;;;6.63;;
63016;SDS011;50274;45.640;11.756;2023-06-19T04:12:08;10.00;;;7.00;;
63016;SDS011;50274;45.640;11.756;2023-06-19T04:14:35;11.10;;;7.32;;
63016;SDS011;50274;45.640;11.756;2023-06-19T04:17:00;9.57;;;6.88;;
63016;SDS011;50274;45.640;11.756;2023-06-19T04:19:26;9.80;;;6.90;;
63016;SDS011;50274;45.640;11.756;2023-06-19T04:21:52;10.45;;;7.55;;
63016;SDS011;50274;45.640;11.756;2023-06-19T04:24:19;10.75;;;7.53;;
63016;SDS011;50274;45.640;11.756;2023-06-19T04:26:45;14.67;;;7.30;;
63016;SDS011;50274;45.640;11.756;2023-06-19T04:29:11;12.95;;;7.95;;
63016;SDS011;50274;45.640;11.756;2023-06-19T04:31:43;10.98;;;7.55;;
63016;SDS011;50274;45.640;11.756;2023-06-19T04:34:12;10.40;;;7.40;;
63016;SDS011;50274;45.640;11.756;2023-06-19T04:36:40;9.68;;;7.38;;
63016;SDS011;50274;45.640;11.756;2023-06-19T04:39:06;11.80;;;7.35;;
63016;SDS011;50274;45.640;11.756;2023-06-19T04:41:32;10.85;;;8.10;;
63016;SDS011;50274;45.640;11.756;2023-06-19T04:43:58;13.37;;;8.10;;
63016;SDS011;50274;45.640;11.756;2023-06-19T04:46:23;14.68;;;7.72;;
63016;SDS011;50274;45.640;11.756;2023-06-19T04:48:49;9.77;;;7.13;;
63016;SDS011;50274;45.640;11.756;2023-06-19T04:51:18;10.38;;;6.90;;
63016;SDS011;50274;45.640;11.756;2023-06-19T04:53:47;11.25;;;7.40;;
63016;SDS011;50274;45.640;11.756;2023-06-19T04:56:13;13.50;;;8.20;;
63016;SDS011;50274;45.640;11.756;2023-06-19T04:58:40;11.48;;;7.63;;
63016;SDS011;50274;45.640;11.756;2023-06-19T05:01:13;10.90;;;7.23;;
63016;SDS011;50274;45.640;11.756;2023-06-19T05:03:39;10.65;;;7.53;;
63016;SDS011;50274;45.640;11.756;2023-06-19T05:06:05;11.38;;;7.65;;
63016;SDS011;50274;45.640;11.756;2023-06-19T05:08:31;10.25;;;7.50;;
63016;SDS011;50274;45.640;11.756;2023-06-19T05:10:57;12.27;;;7.40;;
63016;SDS011;50274;45.640;11.756;2023-06-19T05:13:23;10.10;;;7.65;;
63016;SDS011;50274;45.640;11.756;2023-06-19T05:15:49;10.40;;;7.50;;
63016;SDS011;50274;45.640;11.756;2023-06-19T05:18:18;10.57;;;6.90;;
63016;SDS011;50274;45.640;11.756;2023-06-19T05:20:44;12.52;;;6.45;;
63016;SDS011;50274;45.640;11.756;2023-06-19T05:23:10;10.25;;;6.88;;
63016;SDS011;50274;45.640;11.756;2023-06-19T05:25:36;9.82;;;7.10;;
63016;SDS011;50274;45.640;11.756;2023-06-19T05:28:01;11.33;;;8.30;;
63016;SDS011;50274;45.640;11.756;2023-06-19T05:30:27;9.65;;;6.90;;
63016;SDS011;50274;45.640;11.756;2023-06-19T05:32:53;11.03;;;7.57;;
63016;SDS011;50274;45.640;11.756;2023-06-19T05:35:19;10.82;;;7.63;;
63016;SDS011;50274;45.640;11.756;2023-06-19T05:37:44;11.67;;;8.33;;
63016;SDS011;50274;45.640;11.756;2023-06-19T05:40:10;12.37;;;8.03;;
63016;SDS011;50274;45.640;11.756;2023-06-19T05:42:36;9.77;;;8.18;;
63016;SDS011;50274;45.640;11.756;2023-06-19T05:45:03;11.57;;;7.32;;
63016;SDS011;50274;45.640;11.756;2023-06-19T05:47:30;11.82;;;6.72;;
63016;SDS011;50274;45.640;11.756;2023-06-19T05:49:58;13.47;;;8.37;;
63016;SDS011;50274;45.640;11.756;2023-06-19T05:52:25;13.57;;;7.97;;
63016;SDS011;50274;45.640;11.756;2023-06-19T05:54:51;10.82;;;7.22;;
63016;SDS011;50274;45.640;11.756;2023-06-19T05:57:19;9.43;;;7.30;;
63016;SDS011;50274;45.640;11.756;2023-06-19T05:59:49;11.18;;;7.30;;
63016;SDS011;50274;45.640;11.756;2023-06-19T06:02:17;10.90;;;7.50;;
63016;SDS011;50274;45.640;11.756;2023-06-19T06:04:44;10.98;;;8.20;;
63016;SDS011;50274;45.640;11.756;2023-06-19T06:07:10;10.68;;;8.38;;
63016;SDS011;50274;45.640;11.756;2023-06-19T06:09:36;10.50;;;7.83;;
63016;SDS011;50274;45.640;11.756;2023-06-19T06:12:02;10.27;;;7.25;;
63016;SDS011;50274;45.640;11.756;2023-06-19T06:14:28;11.73;;;7.88;;
63016;SDS011;50274;45.640;11.756;2023-06-19T06:16:54;12.15;;;7.85;;
63016;SDS011;50274;45.640;11.756;2023-06-19T06:19:20;8.97;;;6.13;;
63016;SDS011;50274;45.640;11.756;2023-06-19T06:21:49;9.18;;;6.00;;
63016;SDS011;50274;45.640;11.756;2023-06-19T06:24:15;9.88;;;5.80;;
63016;SDS011;50274;45.640;11.756;2023-06-19T06:26:42;9.25;;;5.53;;
63016;SDS011;50274;45.640;11.756;2023-06-19T06:29:08;7.57;;;4.73;;
63016;SDS011;50274;45.640;11.756;2023-06-19T06:31:34;7.60;;;4.82;;
63016;SDS011;50274;45.640;11.756;2023-06-19T06:34:02;10.38;;;4.97;;
63016;SDS011;50274;45.640;11.756;2023-06-19T06:36:29;11.32;;;5.78;;
63016;SDS011;50274;45.640;11.756;2023-06-19T06:38:55;7.07;;;4.30;;
63016;SDS011;50274;45.640;11.756;2023-06-19T06:41:20;8.75;;;4.88;;
63016;SDS011;50274;45.640;11.756;2023-06-19T06:43:46;10.30;;;5.30;;
63016;SDS011;50274;45.640;11.756;2023-06-19T06:46:12;10.60;;;4.20;;
63016;SDS011;50274;45.640;11.756;2023-06-19T06:48:39;7.13;;;4.32;;
63016;SDS011;50274;45.640;11.756;2023-06-19T06:51:05;10.73;;;4.57;;
63016;SDS011;50274;45.640;11.756;2023-06-19T06:53:31;8.80;;;4.60;;
63016;SDS011;50274;45.640;11.756;2023-06-19T06:55:57;7.45;;;4.88;;
63016;SDS011;50274;45.640;11.756;2023-06-19T06:58:24;8.30;;;5.22;;
63016;SDS011;50274;45.640;11.756;2023-06-19T07:00:51;8.80;;;5.32;;
63016;SDS011;50274;45.640;11.756;2023-06-19T07:03:17;8.98;;;5.20;;
63016;SDS011;50274;45.640;11.756;2023-06-19T07:05:46;7.37;;;4.50;;
63016;SDS011;50274;45.640;11.756;2023-06-19T07:08:15;8.90;;;5.03;;
63016;SDS011;50274;45.640;11.756;2023-06-19T07:10:41;7.65;;;4.30;;
63016;SDS011;50274;45.640;11.756;2023-06-19T07:13:07;8.53;;;4.33;;
63016;SDS011;50274;45.640;11.756;2023-06-19T07:15:33;8.90;;;4.82;;
63016;SDS011;50274;45.640;11.756;2023-06-19T07:17:58;8.35;;;4.50;;
63016;SDS011;50274;45.640;11.756;2023-06-19T07:20:24;8.43;;;4.67;;
63016;SDS011;50274;45.640;11.756;2023-06-19T07:22:51;9.93;;;4.75;;
63016;SDS011;50274;45.640;11.756;2023-06-19T07:25:17;8.93;;;5.13;;
63016;SDS011;50274;45.640;11.756;2023-06-19T07:27:43;8.83;;;4.77;;
63016;SDS011;50274;45.640;11.756;2023-06-19T07:30:09;9.63;;;4.72;;
63016;SDS011;50274;45.640;11.756;2023-06-19T07:32:38;9.52;;;4.55;;
63016;SDS011;50274;45.640;11.756;2023-06-19T07:35:04;8.67;;;4.13;;
63016;SDS011;50274;45.640;11.756;2023-06-19T07:37:32;7.40;;;4.13;;
63016;SDS011;50274;45.640;11.756;2023-06-19T07:39:58;7.32;;;4.32;;
63016;SDS011;50274;45.640;11.756;2023-06-19T07:42:24;8.77;;;4.67;;
63016;SDS011;50274;45.640;11.756;2023-06-19T07:44:51;8.95;;;4.50;;
63016;SDS011;50274;45.640;11.756;2023-06-19T07:47:17;7.07;;;4.35;;
63016;SDS011;50274;45.640;11.756;2023-06-19T07:49:43;9.43;;;4.72;;
63016;SDS011;50274;45.640;11.756;2023-06-19T07:52:10;9.80;;;5.37;;
63016;SDS011;50274;45.640;11.756;2023-06-19T07:54:36;8.13;;;4.90;;
63016;SDS011;50274;45.640;11.756;2023-06-19T07:57:13;7.30;;;4.75;;
63016;SDS011;50274;45.640;11.756;2023-06-19T07:59:40;8.43;;;5.18;;
63016;SDS011;50274;45.640;11.756;2023-06-19T08:02:06;8.37;;;4.40;;
63016;SDS011;50274;45.640;11.756;2023-06-19T08:04:32;10.35;;;6.18;;
63016;SDS011;50274;45.640;11.756;2023-06-19T08:06:57;10.10;;;6.50;;
63016;SDS011;50274;45.640;11.756;2023-06-19T08:09:23;11.45;;;6.00;;
63016;SDS011;50274;45.640;11.756;2023-06-19T08:11:49;8.30;;;5.97;;
63016;SDS011;50274;45.640;11.756;2023-06-19T08:14:15;9.02;;;5.78;;
63016;SDS011;50274;45.640;11.756;2023-06-19T08:16:41;9.85;;;5.65;;
63016;SDS011;50274;45.640;11.756;2023-06-19T08:19:07;8.13;;;4.70;;
63016;SDS011;50274;45.640;11.756;2023-06-19T08:21:35;8.80;;;5.53;;
63016;SDS011;50274;45.640;11.756;2023-06-19T08:24:01;12.68;;;5.40;;
63016;SDS011;50274;45.640;11.756;2023-06-19T08:26:27;10.90;;;6.53;;
63016;SDS011;50274;45.640;11.756;2023-06-19T08:28:54;9.27;;;5.60;;
63016;SDS011;50274;45.640;11.756;2023-06-19T08:31:20;9.18;;;5.32;;
63016;SDS011;50274;45.640;11.756;2023-06-19T08:33:55;10.95;;;5.30;;
63016;SDS011;50274;45.640;11.756;2023-06-19T08:36:32;10.20;;;5.78;;
63016;SDS011;50274;45.640;11.756;2023-06-19T08:39:02;8.70;;;4.50;;
63016;SDS011;50274;45.640;11.756;2023-06-19T08:41:30;11.00;;;5.22;;
63016;SDS011;50274;45.640;11.756;2023-06-19T08:43:56;8.85;;;4.68;;
63016;SDS011;50274;45.640;11.756;2023-06-19T08:46:23;7.50;;;4.20;;
63016;SDS011;50274;45.640;11.756;2023-06-19T08:48:48;7.33;;;4.50;;
63016;SDS011;50274;45.640;11.756;2023-06-19T08:51:14;12.20;;;5.53;;
63016;SDS011;50274;45.640;11.756;2023-06-19T08:53:47;9.57;;;4.80;;
63016;SDS011;50274;45.640;11.756;2023-06-19T08:56:17;8.60;;;4.60;;
63016;SDS011;50274;45.640;11.756;2023-06-19T08:58:43;7.18;;;4.43;;
63016;SDS011;50274;45.640;11.756;2023-06-19T09:01:09;6.72;;;4.45;;
63016;SDS011;50274;45.640;11.756;2023-06-19T09:03:35;7.43;;;4.50;;
63016;SDS011;50274;45.640;11.756;2023-06-19T09:06:04;11.98;;;4.70;;
63016;SDS011;50274;45.640;11.756;2023-06-19T09:08:32;8.57;;;4.50;;
63016;SDS011;50274;45.640;11.756;2023-06-19T09:10:59;10.05;;;4.10;;
63016;SDS011;50274;45.640;11.756;2023-06-19T09:13:26;8.93;;;5.00;;
63016;SDS011;50274;45.640;11.756;2023-06-19T09:16:07;8.00;;;4.57;;
63016;SDS011;50274;45.640;11.756;2023-06-19T09:18:44;8.80;;;4.40;;
63016;SDS011;50274;45.640;11.756;2023-06-19T09:21:17;7.75;;;4.35;;
63016;SDS011;50274;45.640;11.756;2023-06-19T09:23:50;8.18;;;4.50;;
63016;SDS011;50274;45.640;11.756;2023-06-19T09:26:17;9.57;;;4.90;;
63016;SDS011;50274;45.640;11.756;2023-06-19T09:28:44;7.32;;;3.78;;
63016;SDS011;50274;45.640;11.756;2023-06-19T09:31:11;8.05;;;4.13;;
63016;SDS011;50274;45.640;11.756;2023-06-19T09:33:38;10.90;;;4.38;;
63016;SDS011;50274;45.640;11.756;2023-06-19T09:36:05;7.20;;;4.28;;
63016;SDS011;50274;45.640;11.756;2023-06-19T09:38:35;8.03;;;3.97;;
63016;SDS011;50274;45.640;11.756;2023-06-19T09:41:11;8.90;;;4.80;;
63016;SDS011;50274;45.640;11.756;2023-06-19T09:43:41;11.07;;;4.55;;
63016;SDS011;50274;45.640;11.756;2023-06-19T09:46:09;8.55;;;4.53;;
63016;SDS011;50274;45.640;11.756;2023-06-19T09:48:42;9.75;;;4.47;;
63016;SDS011;50274;45.640;11.756;2023-06-19T09:51:19;7.70;;;4.23;;
63016;SDS011;50274;45.640;11.756;2023-06-19T09:53:47;7.30;;;4.40;;
63016;SDS011;50274;45.640;11.756;2023-06-19T09:56:15;9.75;;;4.30;;
63016;SDS011;50274;45.640;11.756;2023-06-19T09:58:47;7.22;;;4.25;;
63016;SDS011;50274;45.640;11.756;2023-06-19T10:01:15;8.77;;;3.92;;
63016;SDS011;50274;45.640;11.756;2023-06-19T10:03:45;6.77;;;3.97;;
63016;SDS011;50274;45.640;11.756;2023-06-19T10:06:15;11.75;;;4.75;;
63016;SDS011;50274;45.640;11.756;2023-06-19T10:08:41;9.95;;;4.50;;
63016;SDS011;50274;45.640;11.756;2023-06-19T10:11:09;7.25;;;4.45;;
63016;SDS011;50274;45.640;11.756;2023-06-19T10:13:36;8.82;;;4.90;;
63016;SDS011;50274;45.640;11.756;2023-06-19T10:16:05;7.73;;;4.40;;
63016;SDS011;50274;45.640;11.756;2023-06-19T10:18:31;8.93;;;4.05;;
63016;SDS011;50274;45.640;11.756;2023-06-19T10:20:58;8.30;;;5.13;;
63016;SDS011;50274;45.640;11.756;2023-06-19T10:23:24;8.50;;;3.90;;
63016;SDS011;50274;45.640;11.756;2023-06-19T10:25:56;8.63;;;4.47;;
63016;SDS011;50274;45.640;11.756;2023-06-19T10:28:33;7.75;;;4.40;;
63016;SDS011;50274;45.640;11.756;2023-06-19T10:31:00;7.32;;;4.55;;
63016;SDS011;50274;45.640;11.756;2023-06-19T10:33:32;8.25;;;4.68;;
63016;SDS011;50274;45.640;11.756;2023-06-19T10:36:00;8.20;;;4.90;;
63016;SDS011;50274;45.640;11.756;2023-06-19T10:38:27;9.20;;;5.60;;
63016;SDS011;50274;45.640;11.756;2023-06-19T10:40:53;8.60;;;4.97;;
63016;SDS011;50274;45.640;11.756;2023-06-19T10:43:23;7.82;;;4.97;;
63016;SDS011;50274;45.640;11.756;2023-06-19T10:45:53;7.72;;;4.80;;
63016;SDS011;50274;45.640;11.756;2023-06-19T10:48:19;7.90;;;4.73;;
63016;SDS011;50274;45.640;11.756;2023-06-19T10:50:47;8.02;;;4.40;;
63016;SDS011;50274;45.640;11.756;2023-06-19T10:53:27;10.20;;;4.63;;
63016;SDS011;50274;45.640;11.756;2023-06-19T10:55:56;7.07;;;4.20;;
63016;SDS011;50274;45.640;11.756;2023-06-19T10:58:24;8.98;;;4.57;;
63016;SDS011;50274;45.640;11.756;2023-06-19T11:00:50;9.00;;;4.27;;
63016;SDS011;50274;45.640;11.756;2023-06-19T11:03:16;8.63;;;5.50;;
63016;SDS011;50274;45.640;11.756;2023-06-19T11:05:44;9.32;;;5.22;;
63016;SDS011;50274;45.640;11.756;2023-06-19T11:08:10;9.50;;;4.97;;
63016;SDS011;50274;45.640;11.756;2023-06-19T11:10:42;10.30;;;5.00;;
63016;SDS011;50274;45.640;11.756;2023-06-19T11:13:07;8.05;;;4.82;;
63016;SDS011;50274;45.640;11.756;2023-06-19T11:15:43;7.28;;;4.57;;
63016;SDS011;50274;45.640;11.756;2023-06-19T11:18:09;9.57;;;4.70;;
63016;SDS011;50274;45.640;11.756;2023-06-19T11:20:48;8.30;;;4.63;;
63016;SDS011;50274;45.640;11.756;2023-06-19T11:23:26;10.90;;;5.43;;
63016;SDS011;50274;45.640;11.756;2023-06-19T11:25:53;7.85;;;4.90;;
63016;SDS011;50274;45.640;11.756;2023-06-19T11:28:19;8.77;;;5.80;;
63016;SDS011;50274;45.640;11.756;2023-06-19T11:30:49;13.48;;;5.65;;
63016;SDS011;50274;45.640;11.756;2023-06-19T11:33:22;9.48;;;5.47;;
63016;SDS011;50274;45.640;11.756;2023-06-19T11:35:49;11.03;;;5.43;;
63016;SDS011;50274;45.640;11.756;2023-06-19T11:38:19;10.07;;;5.03;;
63016;SDS011;50274;45.640;11.756;2023-06-19T11:40:46;8.25;;;5.50;;
63016;SDS011;50274;45.640;11.756;2023-06-19T11:43:12;10.40;;;5.93;;
63016;SDS011;50274;45.640;11.756;2023-06-19T11:45:52;8.70;;;5.07;;
63016;SDS011;50274;45.640;11.756;2023-06-19T11:48:22;8.80;;;5.20;;
63016;SDS011;50274;45.640;11.756;2023-06-19T11:50:51;10.20;;;6.13;;
63016;SDS011;50274;45.640;11.756;2023-06-19T11:53:19;9.10;;;5.50;;
63016;SDS011;50274;45.640;11.756;2023-06-19T11:55:45;10.55;;;5.80;;
63016;SDS011;50274;45.640;11.756;2023-06-19T11:58:11;9.60;;;5.33;;
63016;SDS011;50274;45.640;11.756;2023-06-19T12:00:37;9.05;;;5.70;;
63016;SDS011;50274;45.640;11.756;2023-06-19T12:03:04;11.15;;;5.90;;
63016;SDS011;50274;45.640;11.756;2023-06-19T12:05:29;9.38;;;5.75;;
63016;SDS011;50274;45.640;11.756;2023-06-19T12:07:56;7.10;;;5.23;;
63016;SDS011;50274;45.640;11.756;2023-06-19T12:10:22;9.65;;;5.30;;
63016;SDS011;50274;45.640;11.756;2023-06-19T12:12:48;8.38;;;5.63;;
63016;SDS011;50274;45.640;11.756;2023-06-19T12:15:13;9.40;;;6.00;;
63016;SDS011;50274;45.640;11.756;2023-06-19T12:17:40;12.32;;;6.30;;
63016;SDS011;50274;45.640;11.756;2023-06-19T12:20:06;10.35;;;5.30;;
63016;SDS011;50274;45.640;11.756;2023-06-19T12:22:33;10.20;;;5.90;;
63016;SDS011;50274;45.640;11.756;2023-06-19T12:25:00;9.80;;;5.88;;
63016;SDS011;50274;45.640;11.756;2023-06-19T12:27:26;9.45;;;5.63;;
63016;SDS011;50274;45.640;11.756;2023-06-19T12:29:52;10.00;;;5.93;;
63016;SDS011;50274;45.640;11.756;2023-06-19T12:32:18;9.60;;;6.50;;
63016;SDS011;50274;45.640;11.756;2023-06-19T12:34:43;9.25;;;6.00;;
63016;SDS011;50274;45.640;11.756;2023-06-19T12:37:13;7.78;;;5.30;;
63016;SDS011;50274;45.640;11.756;2023-06-19T12:39:40;7.77;;;5.10;;
63016;SDS011;50274;45.640;11.756;2023-06-19T12:42:07;8.45;;;5.47;;
63016;SDS011;50274;45.640;11.756;2023-06-19T12:44:35;8.27;;;5.78;;
63016;SDS011;50274;45.640;11.756;2023-06-19T12:47:01;9.18;;;5.45;;
63016;SDS011;50274;45.640;11.756;2023-06-19T12:49:28;10.43;;;5.40;;
63016;SDS011;50274;45.640;11.756;2023-06-19T12:51:54;9.10;;;5.30;;
63016;SDS011;50274;45.640;11.756;2023-06-19T12:54:19;7.15;;;5.10;;
63016;SDS011;50274;45.640;11.756;2023-06-19T12:56:45;8.68;;;5.88;;
63016;SDS011;50274;45.640;11.756;2023-06-19T12:59:11;8.07;;;5.27;;
63016;SDS011;50274;45.640;11.756;2023-06-19T13:01:37;7.88;;;5.40;;
63016;SDS011;50274;45.640;11.756;2023-06-19T13:04:03;8.60;;;5.15;;
63016;SDS011;50274;45.640;11.756;2023-06-19T13:06:28;7.63;;;5.37;;
63016;SDS011;50274;45.640;11.756;2023-06-19T13:08:54;8.25;;;5.20;;
63016;SDS011;50274;45.640;11.756;2023-06-19T13:11:20;7.70;;;5.10;;
63016;SDS011;50274;45.640;11.756;2023-06-19T13:13:46;9.32;;;5.28;;
63016;SDS011;50274;45.640;11.756;2023-06-19T13:16:12;7.68;;;4.57;;
63016;SDS011;50274;45.640;11.756;2023-06-19T13:18:37;7.47;;;4.87;;
63016;SDS011;50274;45.640;11.756;2023-06-19T13:21:03;7.88;;;4.82;;
63016;SDS011;50274;45.640;11.756;2023-06-19T13:23:29;6.65;;;4.47;;
63016;SDS011;50274;45.640;11.756;2023-06-19T13:25:56;8.30;;;5.10;;
63016;SDS011;50274;45.640;11.756;2023-06-19T13:28:22;9.57;;;5.20;;
63016;SDS011;50274;45.640;11.756;2023-06-19T13:30:49;8.18;;;4.93;;
63016;SDS011;50274;45.640;11.756;2023-06-19T13:33:15;8.68;;;5.15;;
63016;SDS011;50274;45.640;11.756;2023-06-19T13:35:41;11.35;;;5.22;;
63016;SDS011;50274;45.640;11.756;2023-06-19T13:38:07;7.70;;;4.93;;
63016;SDS011;50274;45.640;11.756;2023-06-19T13:40:35;8.45;;;5.20;;
63016;SDS011;50274;45.640;11.756;2023-06-19T13:43:01;7.05;;;4.50;;
63016;SDS011;50274;45.640;11.756;2023-06-19T13:45:29;10.05;;;5.22;;
63016;SDS011;50274;45.640;11.756;2023-06-19T13:47:58;7.55;;;4.90;;
63016;SDS011;50274;45.640;11.756;2023-06-19T13:50:27;11.10;;;5.40;;
63016;SDS011;50274;45.640;11.756;2023-06-19T13:52:53;6.68;;;4.47;;
63016;SDS011;50274;45.640;11.756;2023-06-19T13:55:21;8.50;;;5.18;;
63016;SDS011;50274;45.640;11.756;2023-06-19T13:57:48;8.18;;;5.35;;
63016;SDS011;50274;45.640;11.756;2023-06-19T14:00:14;7.60;;;4.37;;
63016;SDS011;50274;45.640;11.756;2023-06-19T14:02:40;10.70;;;4.90;;
63016;SDS011;50274;45.640;11.756;2023-06-19T14:05:06;8.20;;;4.45;;
63016;SDS011;50274;45.640;11.756;2023-06-19T14:07:34;7.18;;;4.88;;
63016;SDS011;50274;45.640;11.756;2023-06-19T14:10:00;7.97;;;4.50;;
63016;SDS011;50274;45.640;11.756;2023-06-19T14:12:27;10.38;;;4.70;;
63016;SDS011;50274;45.640;11.756;2023-06-19T14:14:54;7.67;;;4.40;;
63016;SDS011;50274;45.640;11.756;2023-06-19T14:17:20;8.70;;;5.10;;
63016;SDS011;50274;45.640;11.756;2023-06-19T14:19:46;8.85;;;4.40;;
63016;SDS011;50274;45.640;11.756;2023-06-19T14:22:12;8.30;;;4.40;;
63016;SDS011;50274;45.640;11.756;2023-06-19T14:24:38;12.02;;;5.18;;
63016;SDS011;50274;45.640;11.756;2023-06-19T14:27:04;7.18;;;4.65;;
63016;SDS011;50274;45.640;11.756;2023-06-19T14:29:30;7.63;;;4.63;;
63016;SDS011;50274;45.640;11.756;2023-06-19T14:31:56;9.97;;;4.60;;
63016;SDS011;50274;45.640;11.756;2023-06-19T14:34:22;9.25;;;4.80;;